sensor_id;sensor_type;location;lat;lon;timestamp;pressure;altitude;pressure_sealevel;temperature;humidity
34674;BME280;20879;55.668;37.858;2023-05-14T00:02:08;100360.22;;;11.92;56.17
34674;BME280;20879;55.668;37.858;2023-05-14T00:04:37;100356.81;;;11.86;56.13
34674;BME280;20879;55.668;37.858;2023-05-14T00:07:06;100364.66;;;11.82;56.32
34674;BME280;20879;55.668;37.858;2023-05-14T00:09:41;100352.56;;;11.81;56.42
34674;BME280;20879;55.668;37.858;2023-05-14T00:12:10;100350.84;;;11.77;56.59
34674;BME280;20879;55.668;37.858;2023-05-14T00:14:40;100354.38;;;11.71;56.80
34674;BME280;20879;55.668;37.858;2023-05-14T00:17:11;100359.56;;;11.69;56.88
34674;BME280;20879;55.668;37.858;2023-05-14T00:19:40;100353.59;;;11.63;57.14
34674;BME280;20879;55.668;37.858;2023-05-14T00:22:11;100323.56;;;11.37;57.45
34674;BME280;20879;55.668;37.858;2023-05-14T00:24:41;100368.28;;;11.62;57.53
34674;BME280;20879;55.668;37.858;2023-05-14T00:27:15;100362.22;;;11.65;57.40
34674;BME280;20879;55.668;37.858;2023-05-14T00:29:50;100369.19;;;11.57;57.46
34674;BME280;20879;55.668;37.858;2023-05-14T00:32:28;100372.69;;;11.56;57.93
34674;BME280;20879;55.668;37.858;2023-05-14T00:34:57;100367.53;;;11.51;58.15
34674;BME280;20879;55.668;37.858;2023-05-14T00:37:30;100316.03;;;11.08;58.19
34674;BME280;20879;55.668;37.858;2023-05-14T00:40:00;100363.28;;;11.42;58.50
34674;BME280;20879;55.668;37.858;2023-05-14T00:42:30;100363.31;;;11.37;58.04
34674;BME280;20879;55.668;37.858;2023-05-14T00:45:00;100374.56;;;11.36;58.43
34674;BME280;20879;55.668;37.858;2023-05-14T00:47:33;100357.31;;;11.31;58.87
34674;BME280;20879;55.668;37.858;2023-05-14T00:50:04;100371.94;;;11.40;58.65
34674;BME280;20879;55.668;37.858;2023-05-14T00:52:40;100377.22;;;11.27;58.78
34674;BME280;20879;55.668;37.858;2023-05-14T00:55:11;100351.28;;;11.30;58.71
34674;BME280;20879;55.668;37.858;2023-05-14T00:57:42;100365.13;;;11.28;58.88
34674;BME280;20879;55.668;37.858;2023-05-14T01:00:12;100372.91;;;11.28;58.96
34674;BME280;20879;55.668;37.858;2023-05-14T01:02:44;100369.47;;;11.24;59.31
34674;BME280;20879;55.668;37.858;2023-05-14T01:05:29;100375.59;;;11.12;59.33
34674;BME280;20879;55.668;37.858;2023-05-14T01:08:10;100381.59;;;11.22;59.21
34674;BME280;20879;55.668;37.858;2023-05-14T01:10:51;100389.41;;;11.17;59.43
34674;BME280;20879;55.668;37.858;2023-05-14T01:13:29;100387.69;;;11.15;59.65
34674;BME280;20879;55.668;37.858;2023-05-14T01:16:03;100367.00;;;11.10;59.89
34674;BME280;20879;55.668;37.858;2023-05-14T01:18:34;100385.09;;;11.13;59.66
34674;BME280;20879;55.668;37.858;2023-05-14T01:21:04;100381.63;;;11.17;59.42
34674;BME280;20879;55.668;37.858;2023-05-14T01:23:35;100367.00;;;11.09;60.02
34674;BME280;20879;55.668;37.858;2023-05-14T01:26:05;100367.00;;;11.10;59.77
34674;BME280;20879;55.668;37.858;2023-05-14T01:28:44;100388.59;;;11.06;60.33
34674;BME280;20879;55.668;37.858;2023-05-14T01:31:17;100380.91;;;10.95;60.30
34674;BME280;20879;55.668;37.858;2023-05-14T01:33:54;100385.19;;;10.98;60.55
34674;BME280;20879;55.668;37.858;2023-05-14T01:36:27;100375.69;;;11.00;60.37
34674;BME280;20879;55.668;37.858;2023-05-14T01:39:05;100392.13;;;10.97;60.23
34674;BME280;20879;55.668;37.858;2023-05-14T01:41:36;100399.84;;;11.05;60.30
34674;BME280;20879;55.668;37.858;2023-05-14T01:44:13;100406.78;;;11.01;60.55
34674;BME280;20879;55.668;37.858;2023-05-14T01:46:42;100389.47;;;11.05;60.44
34674;BME280;20879;55.668;37.858;2023-05-14T01:49:12;100390.34;;;11.07;60.22
34674;BME280;20879;55.668;37.858;2023-05-14T01:51:41;100405.88;;;11.07;60.19
34674;BME280;20879;55.668;37.858;2023-05-14T01:54:13;100402.41;;;11.08;60.53
34674;BME280;20879;55.668;37.858;2023-05-14T01:56:42;100400.72;;;10.98;60.44
34674;BME280;20879;55.668;37.858;2023-05-14T01:59:11;100416.25;;;11.01;60.72
34674;BME280;20879;55.668;37.858;2023-05-14T02:01:46;100401.53;;;11.11;60.51
34674;BME280;20879;55.668;37.858;2023-05-14T02:04:16;100404.13;;;11.08;60.33
34674;BME280;20879;55.668;37.858;2023-05-14T02:06:46;100429.22;;;11.06;60.39
34674;BME280;20879;55.668;37.858;2023-05-14T02:09:18;100398.94;;;11.09;60.64
34674;BME280;20879;55.668;37.858;2023-05-14T02:11:52;100407.59;;;11.05;60.88
34674;BME280;20879;55.668;37.858;2023-05-14T02:14:21;100381.75;;;10.99;60.32
34674;BME280;20879;55.668;37.858;2023-05-14T02:16:51;100421.41;;;11.10;60.70
34674;BME280;20879;55.668;37.858;2023-05-14T02:19:21;100417.94;;;11.08;60.33
34674;BME280;20879;55.668;37.858;2023-05-14T02:22:08;100408.44;;;11.12;60.39
34674;BME280;20879;55.668;37.858;2023-05-14T02:24:39;100410.19;;;11.08;60.70
34674;BME280;20879;55.668;37.858;2023-05-14T02:27:12;100414.50;;;11.09;60.48
34674;BME280;20879;55.668;37.858;2023-05-14T02:29:42;100428.31;;;11.11;60.66
34674;BME280;20879;55.668;37.858;2023-05-14T02:32:11;100432.66;;;11.06;60.98
34674;BME280;20879;55.668;37.858;2023-05-14T02:34:40;100405.91;;;11.04;60.79
34674;BME280;20879;55.668;37.858;2023-05-14T02:37:15;100402.44;;;11.05;60.57
34674;BME280;20879;55.668;37.858;2023-05-14T02:39:46;100415.38;;;11.04;61.10
34674;BME280;20879;55.668;37.858;2023-05-14T02:42:15;100437.00;;;11.01;61.02
34674;BME280;20879;55.668;37.858;2023-05-14T02:44:46;100421.47;;;10.98;60.83
34674;BME280;20879;55.668;37.858;2023-05-14T02:47:15;100408.50;;;10.99;61.30
34674;BME280;20879;55.668;37.858;2023-05-14T02:49:45;100428.41;;;10.96;61.17
34674;BME280;20879;55.668;37.858;2023-05-14T02:52:20;100424.97;;;10.94;61.44
34674;BME280;20879;55.668;37.858;2023-05-14T02:54:52;100440.50;;;10.94;61.70
34674;BME280;20879;55.668;37.858;2023-05-14T02:57:21;100434.44;;;10.93;61.64
34674;BME280;20879;55.668;37.858;2023-05-14T03:00:02;100418.00;;;10.99;61.44
34674;BME280;20879;55.668;37.858;2023-05-14T03:02:33;100440.50;;;10.97;61.47
34674;BME280;20879;55.668;37.858;2023-05-14T03:05:05;100462.91;;;11.01;61.51
34674;BME280;20879;55.668;37.858;2023-05-14T03:07:35;100443.97;;;10.94;61.83
34674;BME280;20879;55.668;37.858;2023-05-14T03:10:12;100441.38;;;10.94;61.98
34674;BME280;20879;55.668;37.858;2023-05-14T03:12:42;100401.63;;;10.97;61.38
34674;BME280;20879;55.668;37.858;2023-05-14T03:15:11;100437.88;;;11.01;61.58
34674;BME280;20879;55.668;37.858;2023-05-14T03:17:41;100425.00;;;10.83;62.08
34674;BME280;20879;55.668;37.858;2023-05-14T03:20:15;100475.88;;;10.99;61.91
34674;BME280;20879;55.668;37.858;2023-05-14T03:22:50;100444.78;;;11.04;61.52
34674;BME280;20879;55.668;37.858;2023-05-14T03:25:22;100437.84;;;11.08;61.29
34674;BME280;20879;55.668;37.858;2023-05-14T03:27:51;100456.81;;;11.14;61.73
34674;BME280;20879;55.668;37.858;2023-05-14T03:30:21;100461.09;;;11.15;61.49
34674;BME280;20879;55.668;37.858;2023-05-14T03:32:58;100478.38;;;11.19;61.14
34674;BME280;20879;55.668;37.858;2023-05-14T03:35:27;100468.84;;;11.26;60.77
34674;BME280;20879;55.668;37.858;2023-05-14T03:37:57;100460.97;;;11.39;60.50
34674;BME280;20879;55.668;37.858;2023-05-14T03:40:33;100471.22;;;11.59;59.99
34674;BME280;20879;55.668;37.858;2023-05-14T03:43:03;100469.44;;;11.68;59.27
34674;BME280;20879;55.668;37.858;2023-05-14T03:45:32;100474.44;;;11.88;58.68
34674;BME280;20879;55.668;37.858;2023-05-14T03:48:02;100453.53;;;12.07;58.48
34674;BME280;20879;55.668;37.858;2023-05-14T03:50:32;100461.19;;;12.19;58.00
34674;BME280;20879;55.668;37.858;2023-05-14T03:53:07;100453.38;;;12.22;57.52
34674;BME280;20879;55.668;37.858;2023-05-14T03:55:38;100500.16;;;12.18;57.71
34674;BME280;20879;55.668;37.858;2023-05-14T03:58:10;100489.75;;;12.19;57.69
34674;BME280;20879;55.668;37.858;2023-05-14T04:00:41;100479.31;;;12.27;58.18
34674;BME280;20879;55.668;37.858;2023-05-14T04:03:10;100473.94;;;12.44;57.02
34674;BME280;20879;55.668;37.858;2023-05-14T04:05:46;100490.31;;;12.51;56.83
34674;BME280;20879;55.668;37.858;2023-05-14T04:08:21;100488.66;;;12.45;57.18
34674;BME280;20879;55.668;37.858;2023-05-14T04:10:52;100497.25;;;12.52;56.81
34674;BME280;20879;55.668;37.858;2023-05-14T04:13:22;100478.97;;;12.59;56.99
34674;BME280;20879;55.668;37.858;2023-05-14T04:15:53;100487.53;;;12.68;56.62
34674;BME280;20879;55.668;37.858;2023-05-14T04:18:23;100469.94;;;12.91;56.02
34674;BME280;20879;55.668;37.858;2023-05-14T04:21:05;100465.34;;;13.10;55.60
34674;BME280;20879;55.668;37.858;2023-05-14T04:23:39;100485.22;;;13.13;55.08
34674;BME280;20879;55.668;37.858;2023-05-14T04:26:10;100487.31;;;13.53;54.26
34674;BME280;20879;55.668;37.858;2023-05-14T04:28:46;100492.09;;;13.81;53.97
34674;BME280;20879;55.668;37.858;2023-05-14T04:31:15;100480.06;;;13.74;53.12
34674;BME280;20879;55.668;37.858;2023-05-14T04:33:45;100474.00;;;13.72;53.59
34674;BME280;20879;55.668;37.858;2023-05-14T04:36:16;100491.16;;;13.85;53.18
34674;BME280;20879;55.668;37.858;2023-05-14T04:38:45;100487.53;;;13.95;52.85
34674;BME280;20879;55.668;37.858;2023-05-14T04:41:21;100489.91;;;14.08;52.78
34674;BME280;20879;55.668;37.858;2023-05-14T04:43:57;100491.59;;;14.10;52.25
34674;BME280;20879;55.668;37.858;2023-05-14T04:46:26;100483.41;;;13.80;53.13
34674;BME280;20879;55.668;37.858;2023-05-14T04:48:56;100474.00;;;13.72;53.06
34674;BME280;20879;55.668;37.858;2023-05-14T04:51:25;100494.09;;;13.63;53.89
34674;BME280;20879;55.668;37.858;2023-05-14T04:54:10;100486.50;;;13.48;54.24
34674;BME280;20879;55.668;37.858;2023-05-14T04:56:48;100502.97;;;13.50;54.28
34674;BME280;20879;55.668;37.858;2023-05-14T04:59:18;100501.94;;;13.60;54.33
34674;BME280;20879;55.668;37.858;2023-05-14T05:01:47;100489.59;;;13.75;54.32
34674;BME280;20879;55.668;37.858;2023-05-14T05:04:32;100479.72;;;13.95;54.05
34674;BME280;20879;55.668;37.858;2023-05-14T05:07:26;100494.59;;;13.87;53.43
34674;BME280;20879;55.668;37.858;2023-05-14T05:09:55;100490.50;;;13.72;53.48
34674;BME280;20879;55.668;37.858;2023-05-14T05:12:43;100492.19;;;13.73;53.69
34674;BME280;20879;55.668;37.858;2023-05-14T05:15:27;100487.97;;;13.64;54.62
34674;BME280;20879;55.668;37.858;2023-05-14T05:18:02;100479.41;;;13.59;53.69
34674;BME280;20879;55.668;37.858;2023-05-14T05:20:32;100481.19;;;13.54;54.06
34674;BME280;20879;55.668;37.858;2023-05-14T05:23:02;100495.38;;;13.35;53.71
34674;BME280;20879;55.668;37.858;2023-05-14T05:25:32;100477.03;;;13.44;53.83
34674;BME280;20879;55.668;37.858;2023-05-14T05:28:10;100491.91;;;13.36;53.38
34674;BME280;20879;55.668;37.858;2023-05-14T05:30:45;100491.03;;;13.35;54.68
34674;BME280;20879;55.668;37.858;2023-05-14T05:33:14;100496.22;;;13.37;53.57
34674;BME280;20879;55.668;37.858;2023-05-14T05:35:44;100490.03;;;13.44;53.52
34674;BME280;20879;55.668;37.858;2023-05-14T05:38:14;100491.72;;;13.48;53.38
34674;BME280;20879;55.668;37.858;2023-05-14T05:40:44;100494.22;;;13.54;53.47
34674;BME280;20879;55.668;37.858;2023-05-14T05:43:16;100485.47;;;13.58;52.69
34674;BME280;20879;55.668;37.858;2023-05-14T05:45:45;100483.59;;;13.68;52.48
34674;BME280;20879;55.668;37.858;2023-05-14T05:48:20;100472.41;;;13.61;52.12
34674;BME280;20879;55.668;37.858;2023-05-14T05:50:54;100470.69;;;13.63;52.24
34674;BME280;20879;55.668;37.858;2023-05-14T05:53:24;100475.00;;;13.63;49.11
34674;BME280;20879;55.668;37.858;2023-05-14T05:55:59;100482.81;;;13.61;48.08
34674;BME280;20879;55.668;37.858;2023-05-14T05:58:30;100469.78;;;13.63;48.26
34674;BME280;20879;55.668;37.858;2023-05-14T06:03:44;100465.38;;;13.70;46.32
34674;BME280;20879;55.668;37.858;2023-05-14T06:06:15;100450.53;;;13.76;46.28
34674;BME280;20879;55.668;37.858;2023-05-14T06:08:45;100463.50;;;13.78;45.92
34674;BME280;20879;55.668;37.858;2023-05-14T06:11:14;100457.41;;;13.79;45.97
34674;BME280;20879;55.668;37.858;2023-05-14T06:13:52;100461.50;;;13.94;46.61
34674;BME280;20879;55.668;37.858;2023-05-14T06:16:21;100480.53;;;13.97;46.88
34674;BME280;20879;55.668;37.858;2023-05-14T06:18:52;100469.06;;;14.08;46.61
34674;BME280;20879;55.668;37.858;2023-05-14T06:21:21;100485.47;;;14.13;47.40
34674;BME280;20879;55.668;37.858;2023-05-14T06:23:51;100488.69;;;14.27;46.74
34674;BME280;20879;55.668;37.858;2023-05-14T06:26:25;100460.81;;;14.32;47.11
34674;BME280;20879;55.668;37.858;2023-05-14T06:28:57;100473.66;;;14.42;46.19
34674;BME280;20879;55.668;37.858;2023-05-14T06:31:26;100470.69;;;14.60;46.15
34674;BME280;20879;55.668;37.858;2023-05-14T06:33:56;100451.59;;;14.61;45.84
34674;BME280;20879;55.668;37.858;2023-05-14T06:36:31;100475.06;;;14.60;45.83
34674;BME280;20879;55.668;37.858;2023-05-14T06:39:01;100464.47;;;14.69;46.16
34674;BME280;20879;55.668;37.858;2023-05-14T06:41:30;100463.56;;;14.72;46.06
34674;BME280;20879;55.668;37.858;2023-05-14T06:44:02;100480.59;;;14.88;45.21
34674;BME280;20879;55.668;37.858;2023-05-14T06:46:31;100462.84;;;15.06;44.49
34674;BME280;20879;55.668;37.858;2023-05-14T06:49:01;100464.50;;;15.10;44.12
34674;BME280;20879;55.668;37.858;2023-05-14T06:51:36;100445.34;;;15.11;43.93
34674;BME280;20879;55.668;37.858;2023-05-14T06:54:06;100450.81;;;15.39;42.09
34674;BME280;20879;55.668;37.858;2023-05-14T06:56:35;100352.81;;;15.27;41.93
34674;BME280;20879;55.668;37.858;2023-05-14T06:59:13;100445.66;;;15.36;41.52
34674;BME280;20879;55.668;37.858;2023-05-14T07:01:42;100435.84;;;15.46;41.26
34674;BME280;20879;55.668;37.858;2023-05-14T07:04:12;100466.88;;;15.58;41.05
34674;BME280;20879;55.668;37.858;2023-05-14T07:06:41;100466.66;;;15.67;40.38
34674;BME280;20879;55.668;37.858;2023-05-14T07:09:16;100473.88;;;15.94;40.46
34674;BME280;20879;55.668;37.858;2023-05-14T07:11:50;100460.44;;;16.07;40.08
34674;BME280;20879;55.668;37.858;2023-05-14T07:14:22;100487.97;;;16.21;39.55
34674;BME280;20879;55.668;37.858;2023-05-14T07:16:51;100469.94;;;16.45;39.38
34674;BME280;20879;55.668;37.858;2023-05-14T07:19:21;100467.44;;;16.40;38.50
34674;BME280;20879;55.668;37.858;2023-05-14T07:21:56;100482.75;;;16.21;38.46
34674;BME280;20879;55.668;37.858;2023-05-14T07:24:27;100475.28;;;16.40;38.59
34674;BME280;20879;55.668;37.858;2023-05-14T07:27:01;100468.50;;;16.64;38.42
34674;BME280;20879;55.668;37.858;2023-05-14T07:29:37;100482.22;;;16.72;38.35
34674;BME280;20879;55.668;37.858;2023-05-14T07:32:07;100480.91;;;16.89;37.71
34674;BME280;20879;55.668;37.858;2023-05-14T07:34:38;100496.66;;;16.86;37.55
34674;BME280;20879;55.668;37.858;2023-05-14T07:37:08;100491.41;;;16.87;37.13
34674;BME280;20879;55.668;37.858;2023-05-14T07:39:38;100490.25;;;16.98;36.99
34674;BME280;20879;55.668;37.858;2023-05-14T07:42:07;100462.81;;;17.39;36.18
34674;BME280;20879;55.668;37.858;2023-05-14T07:44:43;100490.41;;;17.78;35.56
34674;BME280;20879;55.668;37.858;2023-05-14T07:47:12;100475.97;;;18.18;35.59
34674;BME280;20879;55.668;37.858;2023-05-14T07:49:42;100486.88;;;18.06;35.61
34674;BME280;20879;55.668;37.858;2023-05-14T07:52:11;100480.25;;;18.21;35.83
34674;BME280;20879;55.668;37.858;2023-05-14T07:54:46;100496.28;;;17.85;35.12
34674;BME280;20879;55.668;37.858;2023-05-14T07:57:17;100452.25;;;17.69;35.50
34674;BME280;20879;55.668;37.858;2023-05-14T07:59:48;100487.44;;;17.34;35.97
34674;BME280;20879;55.668;37.858;2023-05-14T08:02:17;100482.31;;;17.57;36.07
34674;BME280;20879;55.668;37.858;2023-05-14T08:04:52;100491.59;;;17.39;36.70
34674;BME280;20879;55.668;37.858;2023-05-14T08:07:22;100485.72;;;17.33;37.08
34674;BME280;20879;55.668;37.858;2023-05-14T08:09:58;100491.78;;;17.33;36.90
34674;BME280;20879;55.668;37.858;2023-05-14T08:12:31;100496.00;;;17.39;37.33
34674;BME280;20879;55.668;37.858;2023-05-14T08:15:04;100503.31;;;17.56;37.09
34674;BME280;20879;55.668;37.858;2023-05-14T08:17:34;100486.88;;;17.51;36.86
34674;BME280;20879;55.668;37.858;2023-05-14T08:20:04;100507.00;;;17.50;36.73
34674;BME280;20879;55.668;37.858;2023-05-14T08:22:35;100503.28;;;17.57;37.01
34674;BME280;20879;55.668;37.858;2023-05-14T08:25:05;100503.75;;;17.70;36.25
34674;BME280;20879;55.668;37.858;2023-05-14T08:27:34;100482.06;;;17.38;36.18
34674;BME280;20879;55.668;37.858;2023-05-14T08:30:07;100499.44;;;17.39;36.44
34674;BME280;20879;55.668;37.858;2023-05-14T08:32:36;100489.66;;;17.73;35.96
34674;BME280;20879;55.668;37.858;2023-05-14T08:35:06;100502.16;;;17.93;35.72
34674;BME280;20879;55.668;37.858;2023-05-14T08:37:48;100498.22;;;18.06;35.36
34674;BME280;20879;55.668;37.858;2023-05-14T08:40:18;100480.38;;;18.17;35.37
34674;BME280;20879;55.668;37.858;2023-05-14T08:42:49;100490.03;;;18.15;35.61
34674;BME280;20879;55.668;37.858;2023-05-14T08:45:24;100485.88;;;18.35;35.65
34674;BME280;20879;55.668;37.858;2023-05-14T08:48:08;100441.97;;;18.40;35.38
34674;BME280;20879;55.668;37.858;2023-05-14T08:50:41;100498.09;;;17.82;36.03
34674;BME280;20879;55.668;37.858;2023-05-14T08:53:11;100484.94;;;17.57;36.85
34674;BME280;20879;55.668;37.858;2023-05-14T08:55:49;100492.22;;;17.47;37.42
34674;BME280;20879;55.668;37.858;2023-05-14T08:58:26;100469.84;;;17.37;35.34
34674;BME280;20879;55.668;37.858;2023-05-14T09:01:05;100487.34;;;17.37;35.56
34674;BME280;20879;55.668;37.858;2023-05-14T09:03:35;100485.16;;;17.51;35.83
34674;BME280;20879;55.668;37.858;2023-05-14T09:06:05;100489.72;;;17.44;36.25
34674;BME280;20879;55.668;37.858;2023-05-14T09:08:35;100483.78;;;17.38;36.62
34674;BME280;20879;55.668;37.858;2023-05-14T09:11:05;100493.63;;;17.31;36.86
34674;BME280;20879;55.668;37.858;2023-05-14T09:13:37;100443.78;;;17.34;36.75
34674;BME280;20879;55.668;37.858;2023-05-14T09:16:08;100463.72;;;17.38;36.91
34674;BME280;20879;55.668;37.858;2023-05-14T09:18:44;100493.63;;;17.31;36.91
34674;BME280;20879;55.668;37.858;2023-05-14T09:21:14;100480.53;;;17.31;36.40
34674;BME280;20879;55.668;37.858;2023-05-14T09:23:52;100482.19;;;17.62;36.81
34674;BME280;20879;55.668;37.858;2023-05-14T09:26:30;100483.22;;;17.83;35.82
34674;BME280;20879;55.668;37.858;2023-05-14T09:29:05;100452.88;;;18.04;35.24
34674;BME280;20879;55.668;37.858;2023-05-14T09:31:37;100456.19;;;17.82;35.04
34674;BME280;20879;55.668;37.858;2023-05-14T09:34:07;100468.66;;;17.47;35.68
34674;BME280;20879;55.668;37.858;2023-05-14T09:36:37;100504.94;;;17.32;36.37
34674;BME280;20879;55.668;37.858;2023-05-14T09:39:11;100493.13;;;17.46;36.42
34674;BME280;20879;55.668;37.858;2023-05-14T09:41:41;100481.97;;;17.68;35.63
34674;BME280;20879;55.668;37.858;2023-05-14T09:44:11;100493.38;;;17.65;35.23
34674;BME280;20879;55.668;37.858;2023-05-14T09:46:43;100443.41;;;17.73;35.59
34674;BME280;20879;55.668;37.858;2023-05-14T09:49:18;100466.56;;;17.86;35.38
34674;BME280;20879;55.668;37.858;2023-05-14T09:51:48;100478.03;;;17.81;35.93
34674;BME280;20879;55.668;37.858;2023-05-14T09:54:18;100475.44;;;18.08;35.16
34674;BME280;20879;55.668;37.858;2023-05-14T09:56:47;100459.97;;;18.26;35.26
34674;BME280;20879;55.668;37.858;2023-05-14T09:59:17;100466.97;;;18.00;34.77
34674;BME280;20879;55.668;37.858;2023-05-14T10:01:56;100487.66;;;17.81;35.56
34674;BME280;20879;55.668;37.858;2023-05-14T10:04:26;100478.97;;;17.52;35.38
34674;BME280;20879;55.668;37.858;2023-05-14T10:06:56;100477.56;;;17.70;35.50
34674;BME280;20879;55.668;37.858;2023-05-14T10:09:30;100469.78;;;18.21;34.74
34674;BME280;20879;55.668;37.858;2023-05-14T10:12:00;100423.53;;;18.67;34.11
34674;BME280;20879;55.668;37.858;2023-05-14T10:14:34;100444.28;;;18.49;34.79
34674;BME280;20879;55.668;37.858;2023-05-14T10:17:06;100463.06;;;18.37;34.51
34674;BME280;20879;55.668;37.858;2023-05-14T10:19:46;100431.09;;;18.27;34.42
34674;BME280;20879;55.668;37.858;2023-05-14T10:22:22;100439.47;;;17.87;34.10
34674;BME280;20879;55.668;37.858;2023-05-14T10:24:53;100463.63;;;17.68;34.22
34674;BME280;20879;55.668;37.858;2023-05-14T10:27:24;100450.84;;;17.59;34.46
34674;BME280;20879;55.668;37.858;2023-05-14T10:29:54;100472.84;;;17.53;33.87
34674;BME280;20879;55.668;37.858;2023-05-14T10:32:26;100446.56;;;17.56;34.68
34674;BME280;20879;55.668;37.858;2023-05-14T10:35:15;100474.06;;;17.70;34.67
34674;BME280;20879;55.668;37.858;2023-05-14T10:37:46;100462.84;;;17.93;34.39
34674;BME280;20879;55.668;37.858;2023-05-14T10:40:16;100468.38;;;18.10;34.68
34674;BME280;20879;55.668;37.858;2023-05-14T10:42:46;100453.47;;;18.38;34.54
34674;BME280;20879;55.668;37.858;2023-05-14T10:45:15;100452.69;;;18.83;34.01
34674;BME280;20879;55.668;37.858;2023-05-14T10:47:47;100457.69;;;19.13;33.27
34674;BME280;20879;55.668;37.858;2023-05-14T10:50:17;100404.25;;;18.92;32.01
34674;BME280;20879;55.668;37.858;2023-05-14T10:52:46;100444.72;;;18.37;32.98
34674;BME280;20879;55.668;37.858;2023-05-14T10:55:17;100450.72;;;18.41;33.28
34674;BME280;20879;55.668;37.858;2023-05-14T10:57:53;100428.75;;;18.20;33.54
34674;BME280;20879;55.668;37.858;2023-05-14T11:00:24;100445.69;;;18.09;33.99
34674;BME280;20879;55.668;37.858;2023-05-14T11:03:05;100463.69;;;18.20;33.97
34674;BME280;20879;55.668;37.858;2023-05-14T11:05:36;100453.53;;;18.36;34.34
34674;BME280;20879;55.668;37.858;2023-05-14T11:08:07;100425.00;;;18.50;34.05
34674;BME280;20879;55.668;37.858;2023-05-14T11:10:38;100455.78;;;18.22;34.27
34674;BME280;20879;55.668;37.858;2023-05-14T11:13:08;100446.91;;;18.49;34.04
34674;BME280;20879;55.668;37.858;2023-05-14T11:15:38;100393.78;;;18.44;34.31
34674;BME280;20879;55.668;37.858;2023-05-14T11:18:25;100433.03;;;18.22;34.38
34674;BME280;20879;55.668;37.858;2023-05-14T11:20:57;100418.09;;;17.99;34.92
34674;BME280;20879;55.668;37.858;2023-05-14T11:23:28;100464.19;;;17.78;35.43
34674;BME280;20879;55.668;37.858;2023-05-14T11:25:57;100470.19;;;17.81;35.34
34674;BME280;20879;55.668;37.858;2023-05-14T11:28:27;100442.19;;;18.10;35.20
34674;BME280;20879;55.668;37.858;2023-05-14T11:30:57;100459.50;;;18.14;35.27
34674;BME280;20879;55.668;37.858;2023-05-14T11:33:29;100451.94;;;18.56;34.78
34674;BME280;20879;55.668;37.858;2023-05-14T11:35:59;100453.91;;;18.73;34.50
34674;BME280;20879;55.668;37.858;2023-05-14T11:38:47;100449.59;;;18.72;33.89
34674;BME280;20879;55.668;37.858;2023-05-14T11:41:23;100440.97;;;18.44;34.36
34674;BME280;20879;55.668;37.858;2023-05-14T11:43:54;100455.88;;;18.67;34.18
34674;BME280;20879;55.668;37.858;2023-05-14T11:46:23;100455.63;;;18.97;33.67
34674;BME280;20879;55.668;37.858;2023-05-14T11:48:56;100459.63;;;18.84;34.11
34674;BME280;20879;55.668;37.858;2023-05-14T11:51:25;100453.66;;;18.80;34.02
34674;BME280;20879;55.668;37.858;2023-05-14T11:53:55;100441.13;;;18.40;34.61
34674;BME280;20879;55.668;37.858;2023-05-14T11:56:24;100475.91;;;18.20;35.50
34674;BME280;20879;55.668;37.858;2023-05-14T11:59:09;100473.00;;;17.75;36.26
34674;BME280;20879;55.668;37.858;2023-05-14T12:01:39;100450.38;;;17.46;37.20
34674;BME280;20879;55.668;37.858;2023-05-14T12:04:19;100413.69;;;17.47;36.92
34674;BME280;20879;55.668;37.858;2023-05-14T12:07:09;100462.44;;;17.78;36.65
34674;BME280;20879;55.668;37.858;2023-05-14T12:09:39;100440.44;;;18.09;36.63
34674;BME280;20879;55.668;37.858;2023-05-14T12:12:11;100423.75;;;17.87;36.26
34674;BME280;20879;55.668;37.858;2023-05-14T12:14:41;100460.81;;;17.74;36.72
34674;BME280;20879;55.668;37.858;2023-05-14T12:17:12;100463.63;;;17.68;36.25
34674;BME280;20879;55.668;37.858;2023-05-14T12:19:47;100445.91;;;17.50;36.32
34674;BME280;20879;55.668;37.858;2023-05-14T12:22:22;100431.59;;;17.60;36.77
34674;BME280;20879;55.668;37.858;2023-05-14T12:24:52;100452.81;;;17.52;36.51
34674;BME280;20879;55.668;37.858;2023-05-14T12:27:22;100411.69;;;17.27;37.13
34674;BME280;20879;55.668;37.858;2023-05-14T12:30:04;100475.81;;;17.42;37.16
34674;BME280;20879;55.668;37.858;2023-05-14T12:32:37;100413.38;;;17.57;37.02
34674;BME280;20879;55.668;37.858;2023-05-14T12:35:09;100460.75;;;17.49;37.58
34674;BME280;20879;55.668;37.858;2023-05-14T12:37:39;100418.59;;;17.57;37.43
34674;BME280;20879;55.668;37.858;2023-05-14T12:40:09;100444.88;;;17.27;38.30
34674;BME280;20879;55.668;37.858;2023-05-14T12:42:39;100459.34;;;17.10;38.48
34674;BME280;20879;55.668;37.858;2023-05-14T12:51:26;100440.72;;;16.91;38.82
34674;BME280;20879;55.668;37.858;2023-05-14T12:54:03;100423.19;;;16.95;39.30
34674;BME280;20879;55.668;37.858;2023-05-14T12:56:32;100462.59;;;16.89;39.25
34674;BME280;20879;55.668;37.858;2023-05-14T12:59:03;100449.44;;;16.92;38.96
34674;BME280;20879;55.668;37.858;2023-05-14T13:01:33;100454.47;;;16.98;38.85
34674;BME280;20879;55.668;37.858;2023-05-14T13:04:04;100453.47;;;17.02;38.79
34674;BME280;20879;55.668;37.858;2023-05-14T13:06:35;100453.56;;;16.99;39.13
34674;BME280;20879;55.668;37.858;2023-05-14T13:09:05;100449.13;;;17.01;39.66
34674;BME280;20879;55.668;37.858;2023-05-14T13:11:47;100464.72;;;17.06;39.37
34674;BME280;20879;55.668;37.858;2023-05-14T13:14:16;100456.44;;;17.20;39.30
34674;BME280;20879;55.668;37.858;2023-05-14T13:16:46;100468.63;;;17.21;39.29